createdAt,value
2017-11-23T00:01:56.100Z,45.50
2017-11-23T00:04:28.611Z,45.60
2017-11-23T00:07:01.202Z,45.60
2017-11-23T00:09:33.762Z,45.60
2017-11-23T00:12:06.358Z,46.30
2017-11-23T00:14:39.714Z,45.60
2017-11-23T00:17:12.301Z,45.50
2017-11-23T00:19:44.882Z,45.60
2017-11-23T00:22:17.412Z,45.60
2017-11-23T00:24:49.925Z,45.60
2017-11-23T00:27:22.544Z,45.50
2017-11-23T00:29:55.049Z,45.60
2017-11-23T00:32:28.361Z,45.50
2017-11-23T00:35:01.186Z,45.50
2017-11-23T00:37:33.764Z,45.40
2017-11-23T00:40:06.298Z,45.40
2017-11-23T00:42:39.599Z,45.50
2017-11-23T00:45:12.066Z,45.50
2017-11-23T00:47:44.546Z,45.50
2017-11-23T00:50:17.078Z,45.40
2017-11-23T00:52:50.516Z,45.40
2017-11-23T00:55:23.085Z,45.40
2017-11-23T00:57:55.588Z,45.40
2017-11-23T01:00:28.097Z,45.30
2017-11-23T01:03:00.710Z,45.30
2017-11-23T01:05:33.225Z,45.40
2017-11-23T01:08:06.562Z,45.40
2017-11-23T01:10:39.832Z,46.00
2017-11-23T01:13:13.167Z,45.90
2017-11-23T01:15:45.755Z,45.30
2017-11-23T01:18:18.259Z,45.70
2017-11-23T01:20:50.750Z,45.30
2017-11-23T01:23:23.390Z,45.30
2017-11-23T01:25:55.946Z,45.40
2017-11-23T01:28:28.539Z,45.40
2017-11-23T01:31:01.046Z,45.30
2017-11-23T01:33:33.578Z,45.30
2017-11-23T01:36:06.815Z,45.30
2017-11-23T01:38:39.339Z,45.30
2017-11-23T01:41:11.864Z,45.30
2017-11-23T01:43:44.362Z,45.30
2017-11-23T01:46:17.653Z,45.40
2017-11-23T01:48:50.954Z,45.40
2017-11-23T01:51:23.481Z,45.30
2017-11-23T01:53:56.809Z,44.80
2017-11-23T01:56:29.314Z,45.30
2017-11-23T01:59:02.617Z,45.30
2017-11-23T02:01:35.864Z,45.30
2017-11-23T02:04:08.393Z,45.30
2017-11-23T02:06:40.902Z,45.30
2017-11-23T02:09:13.541Z,45.30
2017-11-23T02:11:46.081Z,45.30
2017-11-23T02:14:18.689Z,45.30
2017-11-23T02:16:51.246Z,45.20
2017-11-23T02:19:23.823Z,45.50
2017-11-23T02:21:56.344Z,45.20
2017-11-23T02:24:28.884Z,45.20
2017-11-23T02:27:02.230Z,45.20
2017-11-23T02:29:34.794Z,45.20
2017-11-23T02:32:07.395Z,45.10
2017-11-23T02:34:40.024Z,45.20
2017-11-23T02:37:12.545Z,45.20
2017-11-23T02:39:45.834Z,45.40
2017-11-23T02:42:18.429Z,45.20
2017-11-23T02:44:50.933Z,45.20
2017-11-23T02:47:23.445Z,45.10
2017-11-23T02:49:56.054Z,45.10
2017-11-23T02:52:28.629Z,45.10
2017-11-23T02:55:01.118Z,45.10
2017-11-23T02:57:34.354Z,45.10
2017-11-23T03:00:07.675Z,45.40
2017-11-23T03:02:40.295Z,45.10
2017-11-23T03:05:12.880Z,45.10
2017-11-23T03:07:45.484Z,45.10
2017-11-23T03:10:18.898Z,45.20
2017-11-23T03:12:51.482Z,45.20
2017-11-23T03:15:24.074Z,45.20
2017-11-23T03:17:56.646Z,45.20
2017-11-23T03:20:29.937Z,45.20
2017-11-23T03:23:02.397Z,45.10
2017-11-23T03:25:34.938Z,45.20
2017-11-23T03:28:07.458Z,45.20
2017-11-23T03:30:40.042Z,45.20
2017-11-23T03:33:12.578Z,45.20
2017-11-23T03:35:45.155Z,45.20
2017-11-23T03:38:17.649Z,45.20
2017-11-23T03:40:50.229Z,45.20
2017-11-23T03:43:22.806Z,45.20
2017-11-23T03:45:55.386Z,45.20
2017-11-23T03:48:27.918Z,45.10
2017-11-23T03:51:00.477Z,45.10
2017-11-23T03:53:33.006Z,45.10
2017-11-23T03:56:05.550Z,45.20
2017-11-23T03:58:38.158Z,45.10
2017-11-23T04:01:10.733Z,45.20
2017-11-23T04:03:43.243Z,45.20
2017-11-23T04:06:15.792Z,45.20
2017-11-23T04:08:48.301Z,45.10
2017-11-23T04:11:20.918Z,45.10
2017-11-23T04:13:53.388Z,45.10
2017-11-23T04:16:25.971Z,45.10
2017-11-23T04:18:58.510Z,45.10
2017-11-23T04:21:31.163Z,45.10
2017-11-23T04:24:03.717Z,45.40
2017-11-23T04:26:36.087Z,45.10
2017-11-23T04:29:09.393Z,45.20
2017-11-23T04:31:42.646Z,45.10
2017-11-23T04:34:15.253Z,45.00
2017-11-23T04:36:47.833Z,45.10
2017-11-23T04:39:20.318Z,45.10
2017-11-23T04:41:52.937Z,45.20
2017-11-23T04:44:25.394Z,45.20
2017-11-23T04:46:57.878Z,45.10
2017-11-23T04:49:31.160Z,45.00
2017-11-23T04:52:03.665Z,45.00
2017-11-23T04:54:36.253Z,45.10
2017-11-23T04:57:09.522Z,45.10
2017-11-23T04:59:41.885Z,45.10
2017-11-23T05:02:14.366Z,45.10
2017-11-23T05:04:46.955Z,45.10
2017-11-23T05:07:19.426Z,45.80
2017-11-23T05:09:51.843Z,45.10
2017-11-23T05:12:25.197Z,45.10
2017-11-23T05:14:57.779Z,45.00
2017-11-23T05:17:30.368Z,45.00
2017-11-23T05:20:02.922Z,45.10
2017-11-23T05:22:35.452Z,45.70
2017-11-23T05:25:07.966Z,45.10
2017-11-23T05:27:40.459Z,45.20
2017-11-23T05:30:13.807Z,45.60
2017-11-23T05:32:46.290Z,45.00
2017-11-23T05:35:18.786Z,45.10
2017-11-23T05:37:51.350Z,45.10
2017-11-23T05:40:24.705Z,45.10
2017-11-23T05:42:57.110Z,45.00
2017-11-23T05:45:29.698Z,45.10
2017-11-23T05:48:02.158Z,45.10
2017-11-23T05:50:34.641Z,45.10
2017-11-23T05:53:08.050Z,45.10
2017-11-23T05:55:40.470Z,45.00
2017-11-23T05:58:13.032Z,44.90
2017-11-23T06:00:46.345Z,45.00
2017-11-23T06:03:18.999Z,44.90
2017-11-23T06:05:51.471Z,45.10
2017-11-23T06:08:24.029Z,45.00
2017-11-23T06:10:57.268Z,45.00
2017-11-23T06:13:29.750Z,45.00
2017-11-23T06:16:02.285Z,45.00
2017-11-23T06:18:34.609Z,44.90
2017-11-23T06:21:07.082Z,44.90
2017-11-23T06:23:39.577Z,45.00
2017-11-23T06:26:12.141Z,44.90
2017-11-23T06:28:44.636Z,44.90
2017-11-23T06:31:17.179Z,45.00
2017-11-23T06:33:49.819Z,45.00
2017-11-23T06:36:23.131Z,45.00
2017-11-23T06:38:55.654Z,45.00
2017-11-23T06:41:28.978Z,45.00
2017-11-23T06:44:02.210Z,45.00
2017-11-23T06:46:34.681Z,45.00
2017-11-23T06:49:07.326Z,45.00
2017-11-23T06:51:39.778Z,44.90
2017-11-23T06:54:12.321Z,45.00
2017-11-23T06:56:44.920Z,44.90
2017-11-23T06:59:17.456Z,45.00
2017-11-23T07:01:50.818Z,45.00
2017-11-23T07:04:23.322Z,45.00
2017-11-23T07:06:55.902Z,45.00
2017-11-23T07:09:28.458Z,45.00
2017-11-23T07:12:01.730Z,45.00
2017-11-23T07:14:35.063Z,45.00
2017-11-23T07:17:07.641Z,45.00
2017-11-23T07:19:40.238Z,45.00
2017-11-23T07:22:12.762Z,45.00
2017-11-23T07:24:45.277Z,45.00
2017-11-23T07:27:17.833Z,45.00
2017-11-23T07:29:50.374Z,44.90
2017-11-23T07:32:22.898Z,45.00
2017-11-23T07:34:57.144Z,44.90
2017-11-23T07:37:29.536Z,44.90
2017-11-23T07:40:02.068Z,44.90
2017-11-23T07:42:34.586Z,45.00
2017-11-23T07:45:07.264Z,44.90
2017-11-23T07:47:39.726Z,44.90
2017-11-23T07:50:12.258Z,45.00
2017-11-23T07:52:44.763Z,45.00
2017-11-23T07:55:17.340Z,45.10
2017-11-23T07:57:49.838Z,45.00
2017-11-23T08:00:22.483Z,45.00
2017-11-23T08:02:55.022Z,44.90
2017-11-23T08:05:28.401Z,45.00
2017-11-23T08:08:01.671Z,44.90
2017-11-23T08:10:34.981Z,45.00
2017-11-23T08:13:08.264Z,44.90
2017-11-23T08:15:40.794Z,44.80
2017-11-23T08:18:13.354Z,45.00
2017-11-23T08:20:45.834Z,44.90
2017-11-23T08:23:19.169Z,44.90
2017-11-23T08:25:52.386Z,45.00
2017-11-23T08:28:25.804Z,45.60
2017-11-23T08:30:58.278Z,44.80
2017-11-23T08:33:30.805Z,45.00
2017-11-23T08:36:04.234Z,44.90
2017-11-23T08:38:36.793Z,44.90
2017-11-23T08:41:09.210Z,44.80
2017-11-23T08:43:41.748Z,44.90
2017-11-23T08:46:14.309Z,44.80
2017-11-23T08:48:47.486Z,44.80
2017-11-23T08:51:20.794Z,44.90
2017-11-23T08:53:54.071Z,45.20
2017-11-23T08:56:26.618Z,44.90
2017-11-23T08:58:59.061Z,44.90
2017-11-23T09:01:32.127Z,44.80
2017-11-23T09:04:04.987Z,45.30
2017-11-23T09:06:37.525Z,44.90
2017-11-23T09:09:10.234Z,44.90
2017-11-23T09:11:42.717Z,44.90
2017-11-23T09:14:15.370Z,45.00
2017-11-23T09:16:47.981Z,44.90
2017-11-23T09:19:20.318Z,45.00
2017-11-23T09:21:52.870Z,45.00
2017-11-23T09:24:25.377Z,45.00
2017-11-23T09:26:58.708Z,45.00
2017-11-23T09:29:32.089Z,45.00
2017-11-23T09:32:05.553Z,45.00
2017-11-23T09:34:38.783Z,45.40
2017-11-23T09:37:11.304Z,45.00
2017-11-23T09:39:44.543Z,45.00
2017-11-23T09:42:17.062Z,45.00
2017-11-23T09:44:49.570Z,45.00
2017-11-23T09:47:21.949Z,45.00
2017-11-23T09:49:54.471Z,45.00
2017-11-23T09:52:26.998Z,45.10
2017-11-23T09:54:59.549Z,45.10
2017-11-23T09:57:32.105Z,45.10
2017-11-23T10:00:04.657Z,45.10
2017-11-23T10:02:37.929Z,45.00
2017-11-23T10:05:10.495Z,45.00
2017-11-23T10:07:43.026Z,45.00
2017-11-23T10:10:15.525Z,45.00
2017-11-23T10:12:48.137Z,45.00
2017-11-23T10:15:20.664Z,45.00
2017-11-23T10:17:53.217Z,45.00
2017-11-23T10:20:26.462Z,45.00
2017-11-23T10:22:58.943Z,45.00
2017-11-23T10:25:32.213Z,45.10
2017-11-23T10:28:04.754Z,45.00
2017-11-23T10:30:37.291Z,45.10
2017-11-23T10:33:10.482Z,45.00
2017-11-23T10:35:43.022Z,44.90
2017-11-23T10:38:16.350Z,44.90
2017-11-23T10:40:49.610Z,45.00
2017-11-23T10:43:22.111Z,45.00
2017-11-23T10:45:54.707Z,44.90
2017-11-23T10:48:28.015Z,45.00
2017-11-23T10:51:00.582Z,45.00
2017-11-23T10:53:33.187Z,45.00
2017-11-23T10:56:06.617Z,45.00
2017-11-23T10:58:39.150Z,44.90
2017-11-23T11:01:12.470Z,45.00
2017-11-23T11:03:44.837Z,45.00
2017-11-23T11:06:17.297Z,45.00
2017-11-23T11:08:49.766Z,45.00
2017-11-23T11:11:22.294Z,44.90
2017-11-23T11:13:54.895Z,44.90
2017-11-23T11:16:27.354Z,45.00
2017-11-23T11:18:59.945Z,44.90
2017-11-23T11:21:32.576Z,44.90
2017-11-23T11:24:05.100Z,45.00
2017-11-23T11:26:37.557Z,44.90
2017-11-23T11:29:10.157Z,45.00
2017-11-23T11:31:42.607Z,45.00
2017-11-23T11:34:15.279Z,44.70
2017-11-23T11:36:47.764Z,45.00
2017-11-23T11:39:20.250Z,44.90
2017-11-23T11:41:52.855Z,45.00
2017-11-23T11:44:26.178Z,44.90
2017-11-23T11:46:59.590Z,44.90
2017-11-23T11:49:32.217Z,44.80
2017-11-23T11:52:04.719Z,44.80
2017-11-23T11:54:37.280Z,44.80
2017-11-23T11:57:09.698Z,44.80
2017-11-23T11:59:42.267Z,44.80
2017-11-23T12:02:14.638Z,44.80
2017-11-23T12:04:48.079Z,44.90
2017-11-23T12:07:20.670Z,44.90
2017-11-23T12:09:53.338Z,44.90
2017-11-23T12:12:25.758Z,44.90
2017-11-23T12:14:58.232Z,44.90
2017-11-23T12:17:30.858Z,45.00
2017-11-23T12:20:03.390Z,45.00
2017-11-23T12:22:35.883Z,45.00
2017-11-23T12:25:08.454Z,45.00
2017-11-23T12:27:41.701Z,45.00
2017-11-23T12:30:14.305Z,45.00
2017-11-23T12:32:46.882Z,45.00
2017-11-23T12:35:19.433Z,45.80
2017-11-23T12:37:51.890Z,45.00
2017-11-23T12:40:24.541Z,45.00
2017-11-23T12:42:57.059Z,45.00
2017-11-23T12:45:29.622Z,45.10
2017-11-23T12:48:02.267Z,45.00
2017-11-23T12:50:34.811Z,45.00
2017-11-23T12:53:08.114Z,45.10
2017-11-23T12:55:40.649Z,45.10
2017-11-23T12:58:13.242Z,45.10
2017-11-23T13:00:45.877Z,45.10
2017-11-23T13:03:18.403Z,45.10
2017-11-23T13:05:50.947Z,45.10
2017-11-23T13:08:23.438Z,45.10
2017-11-23T13:10:56.080Z,45.10
2017-11-23T13:13:28.598Z,45.10
2017-11-23T13:16:01.978Z,45.10
2017-11-23T13:18:34.823Z,45.10
2017-11-23T13:21:07.320Z,45.20
2017-11-23T13:23:39.810Z,45.20
2017-11-23T13:26:12.377Z,45.10
2017-11-23T13:28:45.664Z,45.20
2017-11-23T13:31:19.003Z,45.20
2017-11-23T13:33:51.551Z,45.80
2017-11-23T13:36:24.099Z,45.20
2017-11-23T13:38:56.636Z,45.20
2017-11-23T13:41:29.161Z,45.20
2017-11-23T13:44:02.458Z,45.20
2017-11-23T13:46:35.002Z,45.20
2017-11-23T13:49:07.561Z,45.20
2017-11-23T13:51:40.146Z,45.20
2017-11-23T13:54:13.355Z,45.30
2017-11-23T13:56:45.915Z,45.20
2017-11-23T13:59:18.418Z,45.20
2017-11-23T14:01:50.774Z,45.30
2017-11-23T14:04:23.353Z,45.20
2017-11-23T14:06:56.655Z,45.30
2017-11-23T14:09:29.137Z,45.20
2017-11-23T14:12:01.789Z,45.30
2017-11-23T14:14:34.508Z,45.20
2017-11-23T14:17:07.153Z,45.20
2017-11-23T14:19:39.681Z,46.00
2017-11-23T14:22:12.225Z,45.20
2017-11-23T14:24:44.849Z,45.30
2017-11-23T14:27:17.357Z,45.20
2017-11-23T14:29:50.702Z,45.20
2017-11-23T14:32:24.029Z,45.20
2017-11-23T14:34:57.288Z,45.20
2017-11-23T14:37:29.756Z,45.20
2017-11-23T14:40:02.306Z,45.20
2017-11-23T14:42:35.657Z,45.20
2017-11-23T14:45:08.961Z,45.30
2017-11-23T14:47:41.595Z,45.20
2017-11-23T14:50:14.242Z,45.30
2017-11-23T14:52:47.566Z,45.30
2017-11-23T14:55:20.069Z,45.30
2017-11-23T14:57:52.607Z,45.30
2017-11-23T15:00:25.229Z,45.30
2017-11-23T15:02:57.657Z,45.30
2017-11-23T15:05:30.988Z,45.30
2017-11-23T15:08:04.195Z,45.40
2017-11-23T15:10:37.574Z,46.00
2017-11-23T15:13:10.229Z,45.30
2017-11-23T15:15:43.463Z,45.30
2017-11-23T15:18:16.877Z,45.40
2017-11-23T15:20:50.142Z,45.40
2017-11-23T15:23:22.657Z,45.40
2017-11-23T15:25:56.002Z,45.40
2017-11-23T15:28:28.370Z,45.40
2017-11-23T15:31:00.882Z,45.40
2017-11-23T15:33:34.182Z,45.40
2017-11-23T15:36:09.008Z,45.40
2017-11-23T15:38:41.581Z,45.40
2017-11-23T15:41:14.146Z,45.40
2017-11-23T15:43:46.650Z,45.40
2017-11-23T15:46:19.986Z,45.40
2017-11-23T15:48:52.443Z,45.40
2017-11-23T15:51:25.026Z,45.40
2017-11-23T15:53:58.242Z,45.40
2017-11-23T15:56:31.623Z,45.40
2017-11-23T15:59:04.094Z,45.40
2017-11-23T16:01:36.662Z,45.40
2017-11-23T16:04:09.191Z,45.40
2017-11-23T16:06:42.438Z,45.50
2017-11-23T16:09:14.968Z,45.40
2017-11-23T16:11:48.293Z,45.50
2017-11-23T16:14:21.612Z,46.10
2017-11-23T16:16:54.090Z,45.40
2017-11-23T16:19:26.655Z,45.50
2017-11-23T16:21:59.099Z,45.50
2017-11-23T16:24:32.531Z,45.50
2017-11-23T16:27:05.098Z,45.40
2017-11-23T16:29:37.649Z,45.50
2017-11-23T16:32:10.858Z,45.60
2017-11-23T16:34:43.606Z,45.50
2017-11-23T16:37:16.081Z,45.50
2017-11-23T16:39:48.665Z,45.50
2017-11-23T16:42:21.087Z,45.40
2017-11-23T16:44:53.706Z,45.50
2017-11-23T16:47:26.277Z,45.50
2017-11-23T16:49:58.866Z,45.40
2017-11-23T16:52:31.459Z,45.40
2017-11-23T16:55:03.953Z,45.50
2017-11-23T16:57:36.504Z,45.50
2017-11-23T17:00:08.934Z,45.50
2017-11-23T17:02:41.429Z,45.50
2017-11-23T17:05:13.929Z,45.40
2017-11-23T17:07:46.471Z,45.40
2017-11-23T17:10:19.059Z,45.40
2017-11-23T17:12:52.174Z,45.60
2017-11-23T17:15:24.720Z,45.50
2017-11-23T17:17:58.046Z,45.60
2017-11-23T17:20:31.489Z,45.10
2017-11-23T17:23:04.114Z,45.40
2017-11-23T17:25:36.562Z,45.60
2017-11-23T17:28:09.065Z,45.40
2017-11-23T17:30:41.609Z,45.50
2017-11-23T17:33:14.108Z,45.60
2017-11-23T17:35:46.576Z,45.40
2017-11-23T17:38:19.778Z,45.60
2017-11-23T17:40:53.044Z,45.50
2017-11-23T17:43:25.446Z,45.50
2017-11-23T17:45:57.967Z,45.50
2017-11-23T17:48:30.516Z,45.50
2017-11-23T17:51:03.026Z,45.50
2017-11-23T17:53:35.624Z,45.50
2017-11-23T17:56:08.072Z,45.50
2017-11-23T17:58:40.562Z,45.50
2017-11-23T18:01:13.896Z,45.60
2017-11-23T18:03:47.102Z,45.60
2017-11-23T18:06:19.592Z,45.60
2017-11-23T18:08:52.182Z,45.50
2017-11-23T18:11:25.394Z,45.60
2017-11-23T18:13:57.901Z,45.50
2017-11-23T18:16:31.179Z,45.60
2017-11-23T18:19:03.646Z,45.60
2017-11-23T18:21:36.146Z,45.70
2017-11-23T18:24:08.720Z,45.60
2017-11-23T18:26:41.231Z,45.70
2017-11-23T18:29:13.764Z,45.70
2017-11-23T18:31:46.275Z,45.70
2017-11-23T18:34:18.820Z,45.70
2017-11-23T18:36:52.100Z,45.70
2017-11-23T18:39:25.374Z,46.30
2017-11-23T18:41:57.915Z,45.60
2017-11-23T18:44:30.489Z,45.60
2017-11-23T18:47:02.985Z,45.70
2017-11-23T18:49:35.613Z,45.70
2017-11-23T18:52:08.175Z,45.60
2017-11-23T18:54:40.738Z,45.60
2017-11-23T18:57:13.370Z,45.70
2017-11-23T18:59:45.823Z,45.60
2017-11-23T19:02:18.384Z,45.60
2017-11-23T19:04:50.898Z,45.60
2017-11-23T19:07:23.495Z,45.60
2017-11-23T19:09:56.078Z,45.70
2017-11-23T19:12:28.623Z,45.60
2017-11-23T19:15:01.185Z,45.60
2017-11-23T19:17:33.690Z,45.60
2017-11-23T19:20:06.371Z,45.60
2017-11-23T19:22:38.880Z,45.60
2017-11-23T19:25:11.452Z,45.50
2017-11-23T19:27:43.918Z,45.50
2017-11-23T19:30:16.415Z,45.50
2017-11-23T19:32:48.997Z,45.60
2017-11-23T19:35:21.570Z,45.60
2017-11-23T19:37:54.141Z,45.50
2017-11-23T19:40:27.562Z,45.60
2017-11-23T19:42:59.967Z,45.50
2017-11-23T19:45:32.493Z,45.60
2017-11-23T19:48:04.990Z,45.50
2017-11-23T19:50:38.257Z,45.60
2017-11-23T19:53:11.486Z,45.60
2017-11-23T19:55:44.069Z,45.40
2017-11-23T19:58:16.616Z,45.60
2017-11-23T20:00:48.959Z,45.60
2017-11-23T20:03:21.505Z,45.50
2017-11-23T20:05:54.049Z,45.60
2017-11-23T20:08:26.521Z,45.60
2017-11-23T20:10:59.094Z,45.60
2017-11-23T20:13:31.630Z,45.50
2017-11-23T20:16:04.317Z,45.60
2017-11-23T20:18:36.809Z,45.50
2017-11-23T20:21:10.145Z,45.60
2017-11-23T20:23:43.461Z,45.60
2017-11-23T20:26:16.768Z,45.50
2017-11-23T20:28:49.990Z,45.50
2017-11-23T20:31:22.555Z,45.50
2017-11-23T20:33:55.027Z,45.50
2017-11-23T20:36:27.577Z,45.50
2017-11-23T20:39:00.858Z,45.50
2017-11-23T20:41:33.343Z,45.50
2017-11-23T20:44:05.945Z,45.50
2017-11-23T20:46:39.221Z,45.50
2017-11-23T20:49:11.600Z,45.50
2017-11-23T20:51:44.985Z,45.50
2017-11-23T20:54:17.417Z,45.50
2017-11-23T20:56:49.993Z,45.50
2017-11-23T20:59:22.421Z,45.50
2017-11-23T21:01:54.976Z,45.50
2017-11-23T21:04:27.504Z,45.50
2017-11-23T21:06:59.978Z,45.50
2017-11-23T21:09:32.462Z,45.50
2017-11-23T21:12:05.784Z,45.50
2017-11-23T21:14:38.283Z,45.50
2017-11-23T21:17:10.708Z,45.50
2017-11-23T21:19:43.234Z,45.50
2017-11-23T21:22:15.788Z,45.50
2017-11-23T21:24:48.376Z,45.50
2017-11-23T21:27:20.927Z,45.80
2017-11-23T21:29:53.377Z,45.60
2017-11-23T21:32:25.966Z,45.60
2017-11-23T21:34:59.245Z,45.60
2017-11-23T21:37:31.747Z,45.60
2017-11-23T21:40:04.246Z,45.50
2017-11-23T21:42:36.843Z,45.60
2017-11-23T21:45:09.396Z,45.60
2017-11-23T21:47:41.917Z,45.50
2017-11-23T21:50:15.211Z,45.90
2017-11-23T21:52:47.804Z,45.50
2017-11-23T21:55:20.308Z,45.60
2017-11-23T21:57:52.894Z,45.50
2017-11-23T22:00:25.422Z,45.60
2017-11-23T22:02:58.024Z,45.60
2017-11-23T22:05:31.417Z,45.60
2017-11-23T22:08:04.716Z,45.60
2017-11-23T22:10:37.929Z,45.60
2017-11-23T22:13:10.465Z,45.60
2017-11-23T22:15:43.030Z,45.60
2017-11-23T22:18:15.578Z,45.60
2017-11-23T22:20:48.888Z,45.60
2017-11-23T22:23:21.261Z,45.60
2017-11-23T22:25:53.718Z,45.60
2017-11-23T22:28:26.170Z,45.60
2017-11-23T22:30:58.711Z,45.60
2017-11-23T22:33:31.867Z,45.60
2017-11-23T22:36:05.244Z,45.60
2017-11-23T22:38:38.531Z,45.60
2017-11-23T22:41:10.981Z,45.60
2017-11-23T22:43:43.634Z,45.60
2017-11-23T22:46:16.122Z,45.60
2017-11-23T22:48:49.515Z,45.70
2017-11-23T22:51:22.030Z,45.60
2017-11-23T22:53:54.621Z,45.60
2017-11-23T22:56:27.034Z,45.60
2017-11-23T22:59:00.410Z,45.60
2017-11-23T23:01:33.646Z,45.70
2017-11-23T23:04:06.115Z,45.60
2017-11-23T23:06:38.656Z,45.60
2017-11-23T23:09:11.190Z,45.60
2017-11-23T23:11:44.461Z,45.60
2017-11-23T23:14:17.763Z,45.70
2017-11-23T23:16:51.107Z,45.60
2017-11-23T23:19:23.675Z,45.60
2017-11-23T23:21:56.247Z,45.60
2017-11-23T23:24:28.798Z,45.60
2017-11-23T23:27:01.386Z,45.60
2017-11-23T23:29:33.862Z,45.70
2017-11-23T23:32:07.009Z,45.70
2017-11-23T23:34:39.648Z,45.60
2017-11-23T23:37:12.081Z,45.60
2017-11-23T23:39:44.661Z,45.70
2017-11-23T23:42:17.139Z,45.70
2017-11-23T23:44:49.584Z,45.70
2017-11-23T23:47:22.154Z,45.70
2017-11-23T23:49:54.678Z,45.70
2017-11-23T23:52:28.014Z,45.70
2017-11-23T23:55:00.534Z,45.60
2017-11-23T23:57:33.130Z,45.70
